Time;durP1;ratioP1;P1;durP2;ratioP2;P2;SDS_P1;SDS_P2;PMS_P1;PMS_P2;Temp;Humidity;BMP_temperature;BMP_pressure;BME280_temperature;BME280_humidity;BME280_pressure;Samples;Min_cycle;Max_cycle;Signal;HPM_P1;HPM_P2
2024/01/04 00:01:50;;;;;;;62.20;21.50;;;;;;;7.54;98.46;98209.09;105451;1255;69195;-59
2024/01/04 00:04:18;;;;;;;65.90;23.00;;;;;;;7.46;98.47;98206.60;105530;1256;72756;-59
2024/01/04 00:06:46;;;;;;;35.50;10.90;;;;;;;7.39;98.36;98205.96;105442;1256;82630;-59
2024/01/04 00:09:14;;;;;;;15.90;5.60;;;;;;;7.33;98.38;98202.52;105483;1259;72890;-59
2024/01/04 00:11:43;;;;;;;17.70;5.40;;;;;;;7.26;98.46;98203.27;105437;1257;69127;-59
2024/01/04 00:14:11;;;;;;;8.40;4.00;;;;;;;7.19;98.21;98208.05;105503;1257;69165;-59
2024/01/04 00:16:39;;;;;;;13.70;5.20;;;;;;;7.13;98.65;98211.68;105486;1258;73589;-59
2024/01/04 00:19:07;;;;;;;7.90;3.30;;;;;;;7.07;98.42;98209.91;105415;1258;81737;-59
2024/01/04 00:21:36;;;;;;;7.30;3.30;;;;;;;7.03;98.59;98207.05;105454;1257;74992;-59
2024/01/04 00:24:04;;;;;;;13.10;6.50;;;;;;;6.98;98.50;98206.30;105445;1257;69147;-59
2024/01/04 00:26:33;;;;;;;6.90;2.60;;;;;;;6.93;98.54;98207.59;105516;1257;69177;-59
2024/01/04 00:29:01;;;;;;;12.50;5.60;;;;;;;6.87;98.57;98212.11;105474;1257;72781;-59
2024/01/04 00:31:29;;;;;;;45.80;16.70;;;;;;;6.79;98.30;98208.05;105481;1257;81694;-56
2024/01/04 00:33:57;;;;;;;66.30;26.90;;;;;;;6.75;98.63;98213.53;105503;1254;72326;-59
2024/01/04 00:36:26;;;;;;;42.60;20.50;;;;;;;6.71;98.76;98211.28;105509;1257;69207;-59
2024/01/04 00:38:54;;;;;;;27.50;14.80;;;;;;;6.67;98.92;98206.46;105415;1257;69212;-59
2024/01/04 00:41:22;;;;;;;9.40;5.00;;;;;;;6.65;99.30;98206.95;105466;1257;73080;-59
2024/01/04 00:43:51;;;;;;;6.80;2.80;;;;;;;6.59;98.88;98208.14;105476;1257;82836;-59
2024/01/04 00:46:19;;;;;;;16.80;7.90;;;;;;;6.56;99.22;98209.88;105521;1254;72077;-59
2024/01/04 00:48:47;;;;;;;16.90;8.80;;;;;;;6.55;99.35;98208.35;105409;1257;69212;-59
2024/01/04 00:51:16;;;;;;;5.50;2.60;;;;;;;6.56;99.46;98207.64;105515;1254;69209;-59
2024/01/04 00:53:44;;;;;;;15.00;6.00;;;;;;;6.56;99.77;98208.99;105516;1254;72579;-59
2024/01/04 00:56:13;;;;;;;10.30;5.30;;;;;;;6.56;99.94;98204.15;105423;1258;81748;-59
2024/01/04 00:58:41;;;;;;;6.90;2.90;;;;;;;6.59;99.99;98204.52;105537;1257;70262;-59
2024/01/04 01:01:10;;;;;;;3.50;1.50;;;;;;;6.61;100.00;98205.81;105458;1257;69090;-59
2024/01/04 01:03:38;;;;;;;4.30;1.40;;;;;;;6.62;100.00;98207.11;105436;1253;69191;-59
2024/01/04 01:06:11;;;;;;;5.10;1.70;;;;;;;6.67;100.00;98210.14;105476;1254;74050;-59
2024/01/04 01:08:39;;;;;;;2.60;1.00;;;;;;;6.73;100.00;98212.23;105468;1254;83390;-60
2024/01/04 01:11:11;;;;;;;2.50;0.90;;;;;;;6.82;100.00;98216.06;105421;1256;72561;-60
2024/01/04 01:13:39;;;;;;;2.00;0.90;;;;;;;6.91;100.00;98214.98;105479;1257;69164;-59
2024/01/04 01:16:08;;;;;;;1.40;0.40;;;;;;;7.04;100.00;98214.45;105462;1257;69192;-59
2024/01/04 01:18:39;;;;;;;2.50;0.60;;;;;;;7.25;100.00;98209.92;105476;1259;71806;-59
2024/01/04 01:21:08;;;;;;;1.80;0.50;;;;;;;7.43;100.00;98212.89;105450;1257;81420;-59
2024/01/04 01:23:36;;;;;;;1.90;0.60;;;;;;;7.57;100.00;98207.14;105467;1253;71813;-59
2024/01/04 01:26:04;;;;;;;5.40;0.90;;;;;;;7.68;100.00;98210.52;105421;1256;69221;-59
2024/01/04 01:28:32;;;;;;;2.10;0.50;;;;;;;7.77;100.00;98209.60;105558;1255;69532;-59
2024/01/04 01:31:04;;;;;;;1.40;0.60;;;;;;;7.87;100.00;98209.59;105485;1254;73095;-59
2024/01/04 01:33:32;;;;;;;1.60;0.60;;;;;;;7.89;100.00;98210.43;105525;1257;81691;-59
2024/01/04 01:36:02;;;;;;;0.80;0.50;;;;;;;7.93;100.00;98212.80;105517;1258;73014;-59
2024/01/04 01:38:31;;;;;;;1.70;0.60;;;;;;;7.96;100.00;98214.36;105460;1255;69183;-59
2024/01/04 01:40:59;;;;;;;1.50;0.70;;;;;;;7.97;100.00;98213.30;105474;1257;69142;-59
2024/01/04 01:43:31;;;;;;;2.60;0.60;;;;;;;7.97;100.00;98212.58;105442;1255;73010;-59
2024/01/04 01:45:59;;;;;;;3.90;0.60;;;;;;;8.00;100.00;98211.36;105429;1254;82753;-59
2024/01/04 01:48:28;;;;;;;2.20;0.60;;;;;;;8.02;100.00;98214.69;105490;1252;71986;-59
2024/01/04 01:50:57;;;;;;;1.90;0.50;;;;;;;8.03;100.00;98218.79;105317;1258;69270;-59
2024/01/04 01:53:26;;;;;;;1.60;0.70;;;;;;;8.06;100.00;98216.56;105511;1257;69218;-59
2024/01/04 01:55:55;;;;;;;2.50;0.60;;;;;;;8.08;99.97;98218.02;105408;1259;72401;-58
2024/01/04 01:58:23;;;;;;;2.20;0.90;;;;;;;8.09;100.00;98217.90;105444;1257;82765;-58
2024/01/04 02:00:52;;;;;;;1.80;0.70;;;;;;;8.11;100.00;98219.40;105491;1257;73111;-58
2024/01/04 02:03:21;;;;;;;1.80;0.60;;;;;;;8.13;100.00;98219.77;105537;1257;69139;-58
2024/01/04 02:05:50;;;;;;;0.90;0.50;;;;;;;8.16;100.00;98219.58;105467;1254;69129;-59
2024/01/04 02:08:19;;;;;;;1.20;0.60;;;;;;;8.17;100.00;98220.73;105462;1254;73106;-59
2024/01/04 02:10:47;;;;;;;1.80;0.40;;;;;;;8.18;100.00;98220.83;105459;1257;81623;-59
2024/01/04 02:13:16;;;;;;;1.50;0.70;;;;;;;8.20;99.93;98224.88;105375;1253;72277;-59
2024/01/04 02:15:44;;;;;;;1.00;0.50;;;;;;;8.23;99.96;98225.94;105479;1257;69205;-58
2024/01/04 02:18:12;;;;;;;2.40;0.70;;;;;;;8.26;99.96;98225.55;105474;1253;69768;-59
2024/01/04 02:20:41;;;;;;;1.10;0.50;;;;;;;8.29;99.96;98228.34;105412;1257;73235;-58
2024/01/04 02:23:16;;;;;;;1.40;0.50;;;;;;;8.34;99.89;98226.16;105489;1257;82571;-58
2024/01/04 02:25:44;;;;;;;1.20;0.30;;;;;;;8.39;99.93;98232.08;105460;1254;70219;-59
2024/01/04 02:28:13;;;;;;;1.20;0.50;;;;;;;8.40;99.79;98227.51;105450;1257;69197;-59
2024/01/04 02:30:41;;;;;;;2.80;0.50;;;;;;;8.38;99.60;98226.59;105449;1257;69263;-59
2024/01/04 02:33:09;;;;;;;2.00;0.40;;;;;;;8.33;99.52;98234.02;105417;1255;72911;-59
2024/01/04 02:35:38;;;;;;;1.70;0.70;;;;;;;8.28;99.39;98227.90;105435;1257;82752;-59
2024/01/04 02:38:06;;;;;;;2.30;0.80;;;;;;;8.21;99.69;98231.13;105440;1257;71990;-59
2024/01/04 02:40:35;;;;;;;0.80;0.50;;;;;;;8.11;99.63;98231.76;105491;1257;69180;-59
2024/01/04 02:43:09;;;;;;;1.80;0.50;;;;;;;7.99;99.79;98232.45;105509;1254;69186;-59
2024/01/04 02:45:37;;;;;;;1.40;0.60;;;;;;;7.88;99.95;98229.84;105471;1253;73194;-59
2024/01/04 02:48:06;;;;;;;2.30;0.60;;;;;;;7.78;100.00;98227.98;105442;1257;81859;-59
2024/01/04 02:50:34;;;;;;;2.50;0.40;;;;;;;7.71;100.00;98229.45;105449;1257;72831;-59
2024/01/04 02:53:03;;;;;;;1.30;0.40;;;;;;;7.66;100.00;98228.39;105484;1253;69202;-59
2024/01/04 02:55:32;;;;;;;0.90;0.40;;;;;;;7.64;100.00;98228.86;105492;1257;69194;-59
2024/01/04 02:58:00;;;;;;;0.50;0.40;;;;;;;7.61;100.00;98225.88;105451;1254;73132;-59
2024/01/04 03:00:28;;;;;;;3.20;0.60;;;;;;;7.60;100.00;98224.91;105480;1257;81600;-59
2024/01/04 03:02:56;;;;;;;1.40;0.50;;;;;;;7.59;100.00;98228.08;105458;1257;71868;-59
2024/01/04 03:05:25;;;;;;;1.30;0.40;;;;;;;7.60;100.00;98234.13;105471;1253;69119;-59
2024/01/04 03:07:53;;;;;;;1.30;0.30;;;;;;;7.59;100.00;98233.09;105481;1257;69293;-59
2024/01/04 03:10:21;;;;;;;1.10;0.40;;;;;;;7.60;100.00;98232.02;105501;1253;72843;-59
2024/01/04 03:12:49;;;;;;;1.00;0.30;;;;;;;7.62;100.00;98227.59;105414;1254;82840;-59
2024/01/04 03:15:17;;;;;;;3.70;0.50;;;;;;;7.63;100.00;98234.78;105432;1253;71839;-59
2024/01/04 03:17:46;;;;;;;1.70;0.30;;;;;;;7.65;100.00;98234.52;105433;1257;69146;-59
2024/01/04 03:20:14;;;;;;;0.80;0.30;;;;;;;7.67;100.00;98233.52;105445;1257;69346;-59
2024/01/04 03:22:42;;;;;;;1.00;0.30;;;;;;;7.69;100.00;98229.55;105475;1253;73327;-59
2024/01/04 03:25:12;;;;;;;0.50;0.40;;;;;;;7.71;100.00;98232.23;105461;1256;82610;-59
2024/01/04 03:27:42;;;;;;;1.50;0.50;;;;;;;7.72;100.00;98229.36;105448;1257;72424;-59
2024/01/04 03:30:11;;;;;;;1.20;0.30;;;;;;;7.74;100.00;98231.89;105501;1257;69208;-59
2024/01/04 03:32:40;;;;;;;1.10;0.40;;;;;;;7.76;100.00;98230.34;105510;1257;69130;-59
2024/01/04 03:35:09;;;;;;;2.10;0.40;;;;;;;7.77;100.00;98236.75;105523;1255;72849;-59
2024/01/04 03:37:37;;;;;;;1.20;0.30;;;;;;;7.76;100.00;98234.55;105452;1256;81498;-60
2024/01/04 03:40:06;;;;;;;1.70;0.30;;;;;;;7.71;100.00;98236.38;105450;1257;72177;-60
2024/01/04 03:42:35;;;;;;;0.80;0.30;;;;;;;7.64;100.00;98241.33;105542;1253;69080;-59
2024/01/04 03:45:04;;;;;;;1.30;0.30;;;;;;;7.59;100.00;98236.94;105468;1256;69225;-59
2024/01/04 03:47:32;;;;;;;2.50;0.20;;;;;;;7.56;100.00;98237.84;105493;1254;73391;-59
2024/01/04 03:50:02;;;;;;;0.40;0.20;;;;;;;7.51;100.00;98238.80;105474;1256;82883;-59
2024/01/04 03:52:31;;;;;;;3.10;0.30;;;;;;;7.49;100.00;98240.88;105495;1254;71987;-59
2024/01/04 03:54:59;;;;;;;0.80;0.30;;;;;;;7.47;100.00;98238.91;105504;1253;69082;-59
2024/01/04 03:57:28;;;;;;;1.40;0.20;;;;;;;7.46;100.00;98241.58;105443;1252;69181;-59
2024/01/04 03:59:56;;;;;;;3.70;0.40;;;;;;;7.44;100.00;98240.48;105538;1253;74282;-59
2024/01/04 04:02:24;;;;;;;1.80;0.20;;;;;;;7.41;100.00;98245.29;105450;1257;81538;-60
2024/01/04 04:04:56;;;;;;;1.50;0.30;;;;;;;7.40;100.00;98242.77;105437;1253;71894;-59
2024/01/04 04:07:24;;;;;;;1.10;0.30;;;;;;;7.38;100.00;98248.05;105483;1252;69121;-59
2024/01/04 04:09:52;;;;;;;1.40;0.70;;;;;;;7.39;100.00;98249.44;105473;1253;69433;-59
2024/01/04 04:12:21;;;;;;;0.70;0.30;;;;;;;7.38;100.00;98255.40;105475;1254;72840;-59
2024/01/04 04:14:49;;;;;;;1.90;0.40;;;;;;;7.36;100.00;98252.17;105511;1257;81468;-58
2024/01/04 04:17:20;;;;;;;2.10;0.30;;;;;;;7.35;100.00;98252.06;105537;1257;72245;-59
2024/01/04 04:19:48;;;;;;;2.40;0.40;;;;;;;7.33;100.00;98258.63;105421;1257;69140;-58
2024/01/04 04:22:16;;;;;;;0.80;0.30;;;;;;;7.33;100.00;98258.63;105432;1257;69168;-58
2024/01/04 04:24:44;;;;;;;2.20;0.40;;;;;;;7.34;100.00;98260.50;105463;1257;71717;-59
2024/01/04 04:27:12;;;;;;;0.40;0.20;;;;;;;7.34;100.00;98262.20;105437;1253;81650;-58
2024/01/04 04:29:41;;;;;;;0.90;0.30;;;;;;;7.34;100.00;98260.11;105530;1253;72883;-58
2024/01/04 04:32:09;;;;;;;3.30;0.40;;;;;;;7.35;100.00;98257.98;105500;1253;69229;-58
2024/01/04 04:34:37;;;;;;;2.70;0.40;;;;;;;7.35;100.00;98258.70;105450;1252;69186;-59
2024/01/04 04:37:06;;;;;;;0.90;0.40;;;;;;;7.34;100.00;98258.73;105483;1253;72924;-58
2024/01/04 04:39:34;;;;;;;0.70;0.20;;;;;;;7.35;100.00;98258.52;105459;1257;81614;-58
2024/01/04 04:42:03;;;;;;;1.30;0.30;;;;;;;7.36;100.00;98252.73;105441;1254;72252;-58
2024/01/04 04:44:31;;;;;;;0.50;0.20;;;;;;;7.36;100.00;98255.65;105488;1257;69108;-58
2024/01/04 04:46:59;;;;;;;1.40;0.30;;;;;;;7.36;100.00;98254.30;105441;1252;69285;-58
2024/01/04 04:49:28;;;;;;;0.60;0.20;;;;;;;7.36;100.00;98253.42;105476;1253;74563;-59
2024/01/04 04:51:57;;;;;;;1.10;0.30;;;;;;;7.38;100.00;98256.04;105503;1252;81386;-58
2024/01/04 04:54:25;;;;;;;1.60;0.40;;;;;;;7.40;100.00;98258.41;105442;1253;72071;-58
2024/01/04 04:56:53;;;;;;;1.40;0.40;;;;;;;7.40;100.00;98260.67;105479;1256;69123;-59
2024/01/04 04:59:22;;;;;;;2.20;0.40;;;;;;;7.41;100.00;98260.46;105456;1255;69303;-58
2024/01/04 05:01:50;;;;;;;1.30;0.40;;;;;;;7.41;100.00;98263.94;105440;1252;73085;-59
2024/01/04 05:04:18;;;;;;;0.80;0.30;;;;;;;7.39;100.00;98267.31;105491;1257;82591;-58
2024/01/04 05:06:47;;;;;;;0.70;0.20;;;;;;;7.37;100.00;98269.69;105516;1257;71831;-58
2024/01/04 05:09:17;;;;;;;0.60;0.20;;;;;;;7.34;100.00;98269.16;105502;1254;69701;-59
2024/01/04 05:11:46;;;;;;;1.90;0.30;;;;;;;7.34;100.00;98268.45;105503;1257;69215;-58
2024/01/04 05:14:14;;;;;;;0.70;0.20;;;;;;;7.35;100.00;98265.10;105505;1258;74053;-58
2024/01/04 05:16:44;;;;;;;0.80;0.30;;;;;;;7.35;100.00;98264.92;105491;1257;83656;-59
2024/01/04 05:19:12;;;;;;;1.10;0.30;;;;;;;7.36;100.00;98267.31;105470;1253;71793;-59
2024/01/04 05:21:41;;;;;;;1.10;0.30;;;;;;;7.36;100.00;98269.41;105499;1253;69263;-58
2024/01/04 05:24:09;;;;;;;1.90;0.40;;;;;;;7.34;100.00;98270.02;105457;1257;69234;-58
2024/01/04 05:26:37;;;;;;;11.20;4.50;;;;;;;7.35;100.00;98269.98;105496;1252;73139;-58
2024/01/04 05:29:05;;;;;;;7.50;4.00;;;;;;;7.35;100.00;98273.80;105467;1257;81769;-58
2024/01/04 05:31:33;;;;;;;10.10;4.40;;;;;;;7.34;100.00;98272.30;105451;1257;71808;-58
2024/01/04 05:34:02;;;;;;;2.50;0.90;;;;;;;7.34;100.00;98279.40;105492;1253;69393;-59
2024/01/04 05:36:30;;;;;;;2.20;0.90;;;;;;;7.36;100.00;98279.98;105451;1257;69162;-59
2024/01/04 05:38:58;;;;;;;11.90;3.50;;;;;;;7.38;100.00;98273.27;105440;1257;72951;-58
2024/01/04 05:41:27;;;;;;;4.10;1.40;;;;;;;7.39;100.00;98279.66;105462;1257;81916;-59
2024/01/04 05:43:55;;;;;;;19.00;6.80;;;;;;;7.41;100.00;98276.95;105475;1253;72037;-59
2024/01/04 05:46:23;;;;;;;7.00;2.30;;;;;;;7.42;100.00;98278.95;105430;1253;69017;-59
2024/01/04 05:48:52;;;;;;;2.30;0.70;;;;;;;7.43;100.00;98284.44;105491;1256;69119;-58
2024/01/04 05:51:20;;;;;;;3.80;1.10;;;;;;;7.45;100.00;98281.42;105444;1254;73108;-59
2024/01/04 05:53:48;;;;;;;8.10;2.60;;;;;;;7.43;100.00;98284.48;105505;1257;82542;-59
2024/01/04 05:56:17;;;;;;;3.40;0.40;;;;;;;7.43;100.00;98283.75;105432;1253;71644;-59
2024/01/04 05:58:46;;;;;;;1.60;0.30;;;;;;;7.44;100.00;98285.10;105510;1257;69230;-59
2024/01/04 06:01:15;;;;;;;1.50;0.40;;;;;;;7.45;100.00;98291.09;105534;1253;69120;-59
2024/01/04 06:03:43;;;;;;;0.60;0.30;;;;;;;7.47;100.00;98289.44;105538;1254;74213;-58
2024/01/04 06:06:14;;;;;;;1.10;0.40;;;;;;;7.49;100.00;98292.47;105511;1253;82910;-58
2024/01/04 06:08:42;;;;;;;1.70;0.50;;;;;;;7.50;100.00;98291.20;105472;1253;71981;-58
2024/01/04 06:11:11;;;;;;;2.80;1.10;;;;;;;7.50;100.00;98293.64;105431;1256;69168;-59
2024/01/04 06:13:39;;;;;;;2.40;1.10;;;;;;;7.47;100.00;98289.95;105501;1257;69197;-58
2024/01/04 06:16:08;;;;;;;3.80;0.90;;;;;;;7.44;100.00;98289.27;105597;1253;73396;-59
2024/01/04 06:18:36;;;;;;;2.60;0.80;;;;;;;7.42;100.00;98293.39;105688;1255;81384;-58
2024/01/04 06:21:05;;;;;;;1.20;0.50;;;;;;;7.39;100.00;98303.10;105709;1254;73020;-58
2024/01/04 06:23:33;;;;;;;3.30;0.40;;;;;;;7.37;100.00;98304.41;105579;1253;69186;-58
2024/01/04 06:26:02;;;;;;;1.20;0.30;;;;;;;7.36;100.00;98312.27;105678;1256;69185;-58
2024/01/04 06:28:30;;;;;;;2.20;0.30;;;;;;;7.36;100.00;98312.52;105596;1256;72848;-58
2024/01/04 06:30:58;;;;;;;0.40;0.20;;;;;;;7.36;100.00;98317.31;105575;1253;83708;-58
2024/01/04 06:33:27;;;;;;;1.10;0.40;;;;;;;7.39;100.00;98313.55;105754;1253;71884;-57
2024/01/04 06:35:55;;;;;;;0.70;0.30;;;;;;;7.40;100.00;98314.88;105520;1254;69169;-57
2024/01/04 06:38:26;;;;;;;2.50;0.30;;;;;;;7.41;100.00;98307.52;105565;1253;69186;-54
2024/01/04 06:40:58;;;;;;;2.50;0.40;;;;;;;7.41;100.00;98308.02;105531;1255;74723;-52
2024/01/04 06:43:27;;;;;;;0.80;0.10;;;;;;;7.43;100.00;98317.45;105687;1255;82421;-57
2024/01/04 06:45:56;;;;;;;0.70;0.30;;;;;;;7.48;100.00;98309.53;105722;1253;71819;-55
2024/01/04 06:48:24;;;;;;;1.30;0.30;;;;;;;7.51;100.00;98315.13;105707;1253;69208;-54
2024/01/04 06:50:53;;;;;;;0.30;0.20;;;;;;;7.54;100.00;98321.90;105401;1257;69168;-56
2024/01/04 06:53:21;;;;;;;1.20;0.40;;;;;;;7.56;100.00;98321.58;105629;1253;72944;-55
2024/01/04 06:55:49;;;;;;;1.40;0.20;;;;;;;7.57;100.00;98328.62;105623;1255;81631;-53
2024/01/04 06:58:17;;;;;;;1.00;0.30;;;;;;;7.59;100.00;98323.50;105591;1253;72041;-56
2024/01/04 07:00:45;;;;;;;2.20;0.40;;;;;;;7.58;100.00;98331.88;105573;1255;69240;-57
2024/01/04 07:03:14;;;;;;;1.00;0.30;;;;;;;7.57;100.00;98333.17;105655;1253;69106;-56
2024/01/04 07:05:42;;;;;;;1.20;0.20;;;;;;;7.57;100.00;98335.25;105674;1253;72884;-56
2024/01/04 07:08:11;;;;;;;2.90;0.20;;;;;;;7.58;100.00;98335.89;105569;1253;80760;-55
2024/01/04 07:10:40;;;;;;;1.70;0.30;;;;;;;7.59;100.00;98342.98;105738;1256;71955;-52
2024/01/04 07:13:08;;;;;;;1.30;0.30;;;;;;;7.58;100.00;98340.77;105717;1253;69519;-53
2024/01/04 07:15:36;;;;;;;3.50;0.70;;;;;;;7.58;100.00;98340.59;105554;1256;69177;-54
2024/01/04 07:18:05;;;;;;;1.00;0.30;;;;;;;7.57;100.00;98342.37;105561;1255;72645;-54
2024/01/04 07:20:33;;;;;;;0.50;0.20;;;;;;;7.56;100.00;98338.95;105602;1255;81772;-53
2024/01/04 07:23:02;;;;;;;0.50;0.20;;;;;;;7.56;100.00;98338.77;105534;1253;70799;-54
2024/01/04 07:25:32;;;;;;;1.70;0.20;;;;;;;7.59;100.00;98341.77;105566;1255;69237;-54
2024/01/04 07:28:00;;;;;;;1.40;0.30;;;;;;;7.61;100.00;98340.95;105601;1253;70533;-54
2024/01/04 07:30:28;;;;;;;2.20;0.30;;;;;;;7.63;100.00;98344.48;105660;1254;73526;-55
2024/01/04 07:32:57;;;;;;;2.00;0.30;;;;;;;7.65;100.00;98341.61;105596;1253;83580;-53
2024/01/04 07:35:27;;;;;;;0.80;0.30;;;;;;;7.66;100.00;98349.69;105619;1253;72139;-52
2024/01/04 07:37:57;;;;;;;0.20;0.20;;;;;;;7.65;100.00;98352.52;105394;1253;69114;-54
2024/01/04 07:40:25;;;;;;;1.40;0.30;;;;;;;7.64;100.00;98358.52;105712;1256;69151;-53
2024/01/04 07:42:53;;;;;;;2.00;0.20;;;;;;;7.63;100.00;98362.25;105589;1255;73321;-54
2024/01/04 07:45:21;;;;;;;0.60;0.30;;;;;;;7.61;100.00;98356.05;105569;1255;81618;-53
2024/01/04 07:47:49;;;;;;;1.30;0.60;;;;;;;7.60;100.00;98358.23;105581;1252;72262;-54
2024/01/04 07:50:18;;;;;;;0.90;0.30;;;;;;;7.57;100.00;98365.34;105711;1254;69085;-54
2024/01/04 07:52:46;;;;;;;0.70;0.30;;;;;;;7.56;100.00;98366.44;105608;1256;69203;-56
2024/01/04 07:55:14;;;;;;;1.40;0.10;;;;;;;7.55;100.00;98368.59;105592;1253;71590;-53
2024/01/04 07:57:42;;;;;;;0.30;0.20;;;;;;;7.54;100.00;98366.38;105638;1257;81690;-54
2024/01/04 08:00:11;;;;;;;0.80;0.20;;;;;;;7.53;100.00;98368.69;105582;1253;72141;-55
2024/01/04 08:02:39;;;;;;;1.20;0.40;;;;;;;7.51;100.00;98368.45;105724;1254;69179;-51
2024/01/04 08:05:10;;;;;;;0.50;0.20;;;;;;;7.50;100.00;98368.32;105822;1252;69148;-55
2024/01/04 08:07:38;;;;;;;0.60;0.20;;;;;;;7.49;100.00;98365.80;105646;1256;71917;-53
2024/01/04 08:10:09;;;;;;;0.50;0.30;;;;;;;7.49;100.00;98370.84;105558;1253;80765;-53
2024/01/04 08:12:40;;;;;;;1.50;0.30;;;;;;;7.50;100.00;98369.22;105656;1255;71752;-53
2024/01/04 08:15:10;;;;;;;0.60;0.20;;;;;;;7.53;100.00;98379.66;105587;1256;69160;-52
2024/01/04 08:17:38;;;;;;;0.70;0.40;;;;;;;7.54;100.00;98379.73;105674;1256;69155;-52
2024/01/04 08:20:07;;;;;;;1.20;0.40;;;;;;;7.57;100.00;98386.37;105564;1252;73002;-55
2024/01/04 08:22:37;;;;;;;0.50;0.20;;;;;;;7.60;100.00;98386.02;105655;1255;83427;-53
2024/01/04 08:25:06;;;;;;;0.70;0.20;;;;;;;7.61;100.00;98388.20;105701;1254;71367;-52
2024/01/04 08:27:35;;;;;;;0.40;0.20;;;;;;;7.64;100.00;98389.79;105735;1253;69710;-53
2024/01/04 08:30:03;;;;;;;0.80;0.30;;;;;;;7.66;100.00;98391.45;105597;1253;69090;-55
2024/01/04 08:32:32;;;;;;;1.00;0.50;;;;;;;7.67;100.00;98390.34;105717;1255;71975;-51
2024/01/04 08:35:00;;;;;;;0.90;0.20;;;;;;;7.67;100.00;98393.28;105645;1255;82989;-50
2024/01/04 08:37:28;;;;;;;0.60;0.20;;;;;;;7.67;100.00;98389.11;105888;1256;73928;-52
2024/01/04 08:39:56;;;;;;;1.00;0.40;;;;;;;7.67;100.00;98391.53;105569;1252;69123;-51
2024/01/04 08:42:25;;;;;;;1.40;0.20;;;;;;;7.67;100.00;98393.78;105584;1253;69984;-50
2024/01/04 08:44:53;;;;;;;0.90;0.30;;;;;;;7.67;100.00;98398.64;105724;1254;74129;-52
2024/01/04 08:47:23;;;;;;;0.10;0.10;;;;;;;7.66;100.00;98398.89;105688;1255;81486;-50
2024/01/04 08:49:53;;;;;;;4.00;0.30;;;;;;;7.65;100.00;98400.67;105652;1253;72847;-55
2024/01/04 08:52:21;;;;;;;1.70;0.30;;;;;;;7.64;100.00;98409.60;105594;1253;69814;-53
2024/01/04 08:54:50;;;;;;;0.70;0.30;;;;;;;7.64;100.00;98409.98;105913;1253;70644;-51
2024/01/04 08:57:18;;;;;;;1.30;0.40;;;;;;;7.63;100.00;98412.14;105686;1253;73024;-51
2024/01/04 08:59:46;;;;;;;0.20;0.20;;;;;;;7.60;100.00;98423.21;105700;1253;82418;-51
2024/01/04 09:02:15;;;;;;;0.50;0.20;;;;;;;7.57;100.00;98424.98;105634;1253;72273;-51
2024/01/04 09:04:43;;;;;;;1.50;0.20;;;;;;;7.55;100.00;98427.65;105728;1255;69882;-57
2024/01/04 09:07:12;;;;;;;2.10;0.30;;;;;;;7.56;100.00;98432.65;105600;1256;70025;-51
2024/01/04 09:09:40;;;;;;;0.50;0.20;;;;;;;7.56;100.00;98438.89;105667;1253;73300;-52
2024/01/04 09:12:08;;;;;;;0.80;0.10;;;;;;;7.57;100.00;98439.00;105553;1253;82111;-56
2024/01/04 09:14:37;;;;;;;0.90;0.20;;;;;;;7.60;100.00;98438.00;105739;1253;72255;-57
2024/01/04 09:17:05;;;;;;;0.90;0.30;;;;;;;7.62;100.00;98444.48;105557;1255;69106;-52
2024/01/04 09:19:33;;;;;;;1.60;0.30;;;;;;;7.66;100.00;98440.26;105536;1255;69987;-51
2024/01/04 09:22:02;;;;;;;1.90;0.40;;;;;;;7.71;100.00;98445.37;105556;1253;73976;-54
2024/01/04 09:24:31;;;;;;;0.60;0.20;;;;;;;7.74;100.00;98452.32;105585;1252;81953;-55
2024/01/04 09:27:00;;;;;;;0.30;0.20;;;;;;;7.77;100.00;98449.17;105716;1255;70757;-56
2024/01/04 09:29:28;;;;;;;0.70;0.20;;;;;;;7.79;100.00;98451.55;105588;1255;70151;-51
2024/01/04 09:31:57;;;;;;;0.60;0.30;;;;;;;7.82;100.00;98453.41;105584;1255;69186;-55
2024/01/04 09:34:25;;;;;;;0.80;0.30;;;;;;;7.86;100.00;98450.77;105785;1253;72958;-55
2024/01/04 09:36:54;;;;;;;0.40;0.20;;;;;;;7.90;100.00;98451.27;105614;1255;82058;-55
2024/01/04 09:39:22;;;;;;;1.10;0.20;;;;;;;7.95;100.00;98454.96;105526;1253;70662;-57
2024/01/04 09:41:52;;;;;;;0.80;0.20;;;;;;;7.97;100.00;98458.11;105667;1253;69120;-56
2024/01/04 09:44:21;;;;;;;0.50;0.20;;;;;;;7.99;100.00;98470.91;105742;1255;69185;-57
2024/01/04 09:46:54;;;;;;;0.50;0.10;;;;;;;7.98;99.96;98470.78;105743;1252;73148;-57
2024/01/04 09:49:22;;;;;;;0.70;0.10;;;;;;;7.96;99.97;98471.91;105666;1256;81849;-53
2024/01/04 09:51:52;;;;;;;1.60;0.40;;;;;;;7.97;99.92;98469.95;105638;1253;72295;-54
2024/01/04 09:54:21;;;;;;;1.70;0.30;;;;;;;8.00;99.66;98471.91;105559;1253;69183;-54
2024/01/04 09:56:50;;;;;;;1.00;0.20;;;;;;;8.01;99.74;98466.62;105677;1255;69919;-53
2024/01/04 09:59:18;;;;;;;0.20;0.20;;;;;;;8.03;99.59;98461.09;105772;1253;73297;-55
2024/01/04 10:01:47;;;;;;;2.40;0.30;;;;;;;8.06;99.77;98458.86;105782;1256;81807;-53
2024/01/04 10:04:16;;;;;;;0.70;0.20;;;;;;;8.10;99.63;98457.23;105600;1254;72243;-53
2024/01/04 10:06:45;;;;;;;0.90;0.30;;;;;;;8.12;99.67;98459.55;105534;1253;70012;-51
2024/01/04 10:09:40;;;;;;;1.30;0.20;;;;;;;8.16;99.58;98453.60;105731;1256;69827;-53
2024/01/04 10:12:11;;;;;;;0.80;0.20;;;;;;;8.21;99.44;98456.77;105681;1253;71706;-55
2024/01/04 10:14:39;;;;;;;0.50;0.20;;;;;;;8.24;99.39;98455.89;105742;1255;80615;-52
2024/01/04 10:17:10;;;;;;;0.60;0.20;;;;;;;8.27;99.23;98458.34;105683;1256;72154;-52
2024/01/04 10:19:40;;;;;;;0.30;0.20;;;;;;;8.30;99.14;98457.98;105612;1254;69059;-52
2024/01/04 10:22:08;;;;;;;0.40;0.20;;;;;;;8.35;99.00;98462.23;105619;1255;69651;-51
2024/01/04 10:24:38;;;;;;;0.50;0.30;;;;;;;8.38;99.01;98461.33;105577;1253;75085;-52
2024/01/04 10:27:08;;;;;;;;;;;;;;;8.38;98.77;98465.17;105664;1253;81408;-51
2024/01/04 10:29:38;;;;;;;0.60;0.20;;;;;;;8.38;98.84;98460.80;105596;1253;72177;-51
2024/01/04 10:32:10;;;;;;;1.20;0.30;;;;;;;8.41;98.83;98461.16;105664;1253;69065;-50
2024/01/04 10:34:40;;;;;;;0.70;0.10;;;;;;;8.46;98.58;98455.98;105569;1255;69182;-50
2024/01/04 10:37:11;;;;;;;0.40;0.10;;;;;;;8.47;98.48;98456.11;105589;1253;73416;-52
2024/01/04 10:39:42;;;;;;;0.40;0.20;;;;;;;8.46;98.23;98449.36;105652;1255;81694;-51
2024/01/04 10:42:12;;;;;;;0.30;0.20;;;;;;;8.46;98.28;98447.50;105481;1255;180429;-51
2024/01/04 10:44:43;;;;;;;1.40;0.10;;;;;;;8.43;98.05;98451.65;105614;1254;69820;-50
2024/01/04 10:47:14;;;;;;;0.60;0.30;;;;;;;8.40;98.10;98451.81;105594;1253;69175;-51
2024/01/04 10:49:46;;;;;;;0.30;0.20;;;;;;;8.37;97.90;98447.11;105705;1253;74382;-52
2024/01/04 10:52:16;;;;;;;0.70;0.20;;;;;;;8.33;97.72;98447.20;105712;1253;81426;-53
2024/01/04 10:54:44;;;;;;;0.50;0.10;;;;;;;8.31;97.74;98456.19;105670;1253;72427;-52
2024/01/04 10:57:12;;;;;;;0.20;0.10;;;;;;;8.28;97.47;98456.70;105740;1256;69110;-55
2024/01/04 10:59:43;;;;;;;0.20;0.20;;;;;;;8.25;97.55;98451.81;105645;1253;69868;-52
2024/01/04 11:02:15;;;;;;;0.70;0.20;;;;;;;8.22;97.44;98450.94;105626;1254;73043;-54
2024/01/04 11:04:44;;;;;;;0.40;0.20;;;;;;;8.19;97.55;98451.27;105570;1253;83312;-54
2024/01/04 11:07:15;;;;;;;2.80;0.30;;;;;;;8.17;97.44;98444.11;105673;1253;72043;-53
2024/01/04 11:09:43;;;;;;;0.90;0.20;;;;;;;8.14;97.71;98442.59;105722;1255;69830;-55
2024/01/04 11:12:13;;;;;;;1.40;0.20;;;;;;;8.09;97.81;98447.91;105686;1253;69167;-55
2024/01/04 11:14:42;;;;;;;0.30;0.10;;;;;;;7.99;97.71;98456.99;105706;1253;72807;-55
2024/01/04 11:17:32;;;;;;;0.70;0.30;;;;;;;7.83;97.81;98464.33;105537;1255;81908;-56
2024/01/04 11:20:08;;;;;;;1.00;0.20;;;;;;;7.60;98.17;98491.70;105559;1253;72558;-58
2024/01/04 11:22:45;;;;;;;1.90;0.60;;;;;;;7.35;98.29;98501.77;105625;1253;69141;-59
2024/01/04 11:25:35;;;;;;;2.20;0.30;;;;;;;7.07;97.68;98501.20;105599;1256;69186;-57
2024/01/04 11:28:06;;;;;;;1.30;0.30;;;;;;;6.66;97.50;98501.07;105680;1253;71664;-60
2024/01/04 11:30:35;;;;;;;1.30;0.40;;;;;;;6.34;97.89;98509.78;105624;1253;80399;-59
2024/01/04 11:33:04;;;;;;;1.70;0.30;;;;;;;6.15;98.63;98511.27;105716;1256;71487;-60
2024/01/04 11:35:36;;;;;;;1.40;0.40;;;;;;;6.02;99.24;98510.83;105780;1255;69130;-59